South Dos Palos, California
Current Conditions -  °F | °C
As of 3:53 AM on Thursday 18 Dec 2014 (Local Time) from KMCE Reporting Station
Overcast Overcast  
Wind Chill: 51°   Ceiling: 7000
Heat Index: 51°   Visibility: 10mi
Dew Point: 46°   Wind: 6mph
Humidity: 83%   Direction: 100°E
Pressure: 30.12"   Gusts: NA
Location:  36.96°N, 120.65°W
Report Text: KMCE 181153Z AUTO 10005KT 10SM BKN070 OVC080 11/08 A3012 RMK AO2 SLP200 60001 70001 T01060078 10106 20100 51003
Loading
Personal Weather Stations






























Interactive Weather Map New forecast layout! Learn more

10-Day Weather Forecast

Advertisements
Track Severe Weather on mobile